Time;durP1;ratioP1;P1;durP2;ratioP2;P2;SDS_P1;SDS_P2;PMS_P1;PMS_P2;Temp;Humidity;BMP_temperature;BMP_pressure;BME280_temperature;BME280_humidity;BME280_pressure;Samples;Min_cycle;Max_cycle;Signal;HPM_P1;HPM_P2
2021/07/02 00:00:45;;;;;;;35.08;19.40;;;16.00;99.90;;;;;;5115565;28;20112;-73
2021/07/02 00:03:11;;;;;;;38.95;19.63;;;16.00;99.90;;;;;;5116043;28;20488;-72
2021/07/02 00:05:37;;;;;;;33.78;20.13;;;16.00;99.90;;;;;;5115948;28;20043;-72
2021/07/02 00:08:03;;;;;;;36.88;21.52;;;16.00;99.90;;;;;;5115387;28;20039;-72
2021/07/02 00:10:28;;;;;;;38.50;20.73;;;15.90;99.90;;;;;;5114907;28;20123;-72
2021/07/02 00:12:54;;;;;;;34.33;19.50;;;15.90;99.90;;;;;;5115082;28;20118;-72
2021/07/02 00:15:20;;;;;;;33.63;19.98;;;16.00;99.90;;;;;;5115029;28;20114;-72
2021/07/02 00:17:46;;;;;;;36.50;20.17;;;16.00;99.90;;;;;;5115259;28;20045;-72
2021/07/02 00:20:12;;;;;;;40.03;21.33;;;16.00;99.90;;;;;;5114798;28;20376;-72
2021/07/02 00:22:38;;;;;;;31.77;19.27;;;15.90;99.90;;;;;;5115703;27;20114;-72
2021/07/02 00:25:05;;;;;;;36.92;19.60;;;15.90;99.90;;;;;;5115159;28;20542;-72
2021/07/02 00:27:32;;;;;;;36.28;21.33;;;15.90;99.90;;;;;;5114830;28;20035;-72
2021/07/02 00:29:57;;;;;;;40.13;20.85;;;15.90;99.90;;;;;;5114996;28;20035;-72
2021/07/02 00:32:23;;;;;;;40.53;21.35;;;15.90;99.90;;;;;;5114848;28;20096;-72
2021/07/02 00:34:49;;;;;;;45.45;22.25;;;15.90;99.90;;;;;;5115236;28;20104;-72
2021/07/02 00:37:15;;;;;;;39.53;20.25;;;15.90;99.90;;;;;;5115124;28;20544;-72
2021/07/02 00:39:40;;;;;;;38.83;21.67;;;15.90;99.90;;;;;;5114276;28;20042;-72
2021/07/02 00:42:06;;;;;;;45.47;22.33;;;15.90;99.90;;;;;;5114886;28;20522;-72
2021/07/02 00:44:44;;;;;;;41.08;21.33;;;15.90;99.90;;;;;;5115028;28;20042;-72
2021/07/02 00:47:11;;;;;;;41.33;22.13;;;15.80;99.90;;;;;;5115117;28;20032;-72
2021/07/02 00:49:37;;;;;;;47.13;21.88;;;15.80;99.90;;;;;;5114444;28;20046;-72
2021/07/02 00:52:06;;;;;;;41.33;22.15;;;15.90;99.90;;;;;;5095433;28;20076;-72
2021/07/02 00:54:33;;;;;;;42.70;21.30;;;15.80;99.90;;;;;;5114698;28;20540;-72
2021/07/02 00:57:00;;;;;;;40.70;20.48;;;15.90;99.90;;;;;;5114330;28;20399;-72
2021/07/02 00:59:25;;;;;;;45.75;22.35;;;15.90;99.90;;;;;;5114079;28;20035;-72
2021/07/02 01:01:53;;;;;;;40.72;21.65;;;15.80;99.90;;;;;;5114862;28;20036;-72
2021/07/02 01:04:19;;;;;;;43.40;20.65;;;15.80;99.90;;;;;;5114149;28;20471;-72
2021/07/02 01:06:46;;;;;;;43.78;21.15;;;15.80;99.90;;;;;;5114384;28;20479;-72
2021/07/02 01:09:12;;;;;;;39.50;19.73;;;15.80;99.90;;;;;;5113968;28;20380;-72
2021/07/02 01:11:38;;;;;;;41.40;20.55;;;15.90;99.90;;;;;;5113208;28;20089;-72
2021/07/02 01:14:04;;;;;;;39.70;19.90;;;15.70;99.90;;;;;;5114284;28;20039;-72
2021/07/02 01:16:30;;;;;;;39.53;21.58;;;15.80;99.90;;;;;;5114334;28;20053;-72
2021/07/02 01:18:58;;;;;;;40.55;18.63;;;15.80;99.90;;;;;;5114087;28;20054;-72
2021/07/02 01:21:24;;;;;;;37.58;19.15;;;15.80;99.90;;;;;;5113890;28;20044;-72
2021/07/02 01:23:50;;;;;;;35.58;19.13;;;15.80;99.90;;;;;;5114349;28;20445;-72
2021/07/02 01:26:16;;;;;;;37.65;18.98;;;15.80;99.90;;;;;;5114022;28;20031;-72
2021/07/02 01:28:43;;;;;;;44.95;21.23;;;15.80;99.90;;;;;;5113022;28;20487;-72
2021/07/02 01:31:08;;;;;;;35.42;18.92;;;15.80;99.90;;;;;;5114238;28;20036;-72
2021/07/02 01:33:34;;;;;;;40.25;19.48;;;15.80;99.90;;;;;;5113852;28;20047;-72
2021/07/02 01:36:15;;;;;;;37.17;19.05;;;15.70;99.90;;;;;;5114019;28;20044;-72
2021/07/02 01:38:41;;;;;;;38.17;19.83;;;15.70;99.90;;;;;;5114010;28;20146;-72
2021/07/02 01:41:07;;;;;;;38.65;18.15;;;15.70;99.90;;;;;;5113654;28;20471;-72
2021/07/02 01:43:34;;;;;;;41.13;17.95;;;15.70;99.90;;;;;;5113729;28;20067;-73
2021/07/02 01:45:59;;;;;;;36.65;18.33;;;15.70;99.90;;;;;;5113672;28;20078;-72
2021/07/02 01:48:25;;;;;;;39.35;17.40;;;15.70;99.90;;;;;;5113845;28;20078;-72
2021/07/02 01:50:51;;;;;;;39.15;18.02;;;15.70;99.90;;;;;;5113398;28;20039;-72
2021/07/02 01:53:16;;;;;;;41.25;17.17;;;15.70;99.90;;;;;;5113701;28;20067;-72
2021/07/02 01:55:42;;;;;;;36.10;17.10;;;15.70;99.90;;;;;;5114272;28;20488;-72
2021/07/02 01:58:08;;;;;;;37.65;17.38;;;15.70;99.90;;;;;;5112053;28;20479;-72
2021/07/02 02:00:34;;;;;;;37.28;17.33;;;15.70;99.90;;;;;;5112199;28;20039;-72
2021/07/02 02:03:00;;;;;;;28.90;16.30;;;15.70;99.90;;;;;;5115319;28;20046;-72
2021/07/02 02:05:26;;;;;;;32.42;16.80;;;15.70;99.90;;;;;;5117707;28;20035;-72
2021/07/02 02:07:51;;;;;;;33.90;16.92;;;15.70;99.90;;;;;;5117556;28;20046;-72
2021/07/02 02:10:17;;;;;;;36.88;16.35;;;15.60;99.90;;;;;;5117188;28;20036;-72
2021/07/02 02:12:42;;;;;;;30.52;16.02;;;15.60;99.90;;;;;;5117359;28;20040;-72
2021/07/02 02:15:09;;;;;;;29.58;15.68;;;15.60;99.90;;;;;;5117360;28;20113;-72
2021/07/02 02:17:35;;;;;;;30.02;15.32;;;15.70;99.90;;;;;;5117398;28;20441;-72
2021/07/02 02:20:07;;;;;;;27.00;14.50;;;15.70;99.90;;;;;;5117383;28;20044;-72
2021/07/02 02:22:33;;;;;;;32.33;15.02;;;15.70;99.90;;;;;;5117480;28;20036;-72
2021/07/02 02:24:59;;;;;;;25.20;14.23;;;15.70;99.90;;;;;;5117258;28;20093;-72
2021/07/02 02:27:26;;;;;;;29.77;15.00;;;15.60;99.90;;;;;;5117189;28;20035;-72
2021/07/02 02:29:52;;;;;;;26.80;14.88;;;15.60;99.90;;;;;;5116847;28;20070;-72
2021/07/02 02:32:18;;;;;;;26.95;14.98;;;15.60;99.90;;;;;;5117425;28;20031;-72
2021/07/02 02:34:44;;;;;;;26.05;14.32;;;15.60;99.90;;;;;;5117237;28;20045;-72
2021/07/02 02:37:09;;;;;;;26.70;13.40;;;15.60;99.90;;;;;;5117126;28;20119;-72
2021/07/02 02:39:35;;;;;;;25.20;14.52;;;15.60;99.90;;;;;;5116663;28;20096;-72
2021/07/02 02:42:01;;;;;;;24.88;13.80;;;15.60;99.90;;;;;;5116942;28;20060;-72
2021/07/02 02:44:26;;;;;;;27.33;14.23;;;15.60;99.90;;;;;;5116935;27;20031;-72
2021/07/02 02:46:52;;;;;;;23.92;13.85;;;15.60;99.90;;;;;;5116814;28;20141;-72
2021/07/02 02:49:18;;;;;;;26.23;14.13;;;15.60;99.90;;;;;;5116593;28;20070;-72
2021/07/02 02:51:44;;;;;;;26.00;13.10;;;15.70;99.90;;;;;;5116700;28;20032;-72
2021/07/02 02:54:09;;;;;;;31.02;13.85;;;15.60;99.90;;;;;;5116892;28;20134;-72
2021/07/02 02:56:35;;;;;;;25.42;13.32;;;15.70;99.90;;;;;;5116709;28;20040;-72
2021/07/02 02:59:01;;;;;;;25.45;14.27;;;15.70;99.90;;;;;;5116353;28;20043;-72
2021/07/02 03:01:27;;;;;;;24.10;13.73;;;15.70;99.90;;;;;;5116798;28;20368;-72
2021/07/02 03:03:53;;;;;;;21.33;12.77;;;15.70;99.90;;;;;;5116538;28;20039;-72
2021/07/02 03:06:18;;;;;;;29.83;13.77;;;15.70;99.90;;;;;;5116462;28;20455;-72
2021/07/02 03:08:45;;;;;;;27.52;13.38;;;15.70;99.90;;;;;;5116081;28;20540;-72
2021/07/02 03:11:11;;;;;;;23.52;12.30;;;15.70;99.90;;;;;;5116565;28;20075;-72
2021/07/02 03:13:37;;;;;;;20.83;13.40;;;15.60;99.90;;;;;;5116338;28;20088;-72
2021/07/02 03:16:03;;;;;;;27.45;13.65;;;15.60;99.90;;;;;;5115329;28;20120;-72
2021/07/02 03:18:29;;;;;;;24.13;12.73;;;15.70;99.90;;;;;;5116330;28;20114;-72
2021/07/02 03:20:55;;;;;;;25.60;12.35;;;15.60;99.90;;;;;;5116367;28;20046;-72
2021/07/02 03:23:21;;;;;;;21.27;12.32;;;15.70;99.90;;;;;;5116205;28;20036;-72
2021/07/02 03:25:47;;;;;;;24.60;13.18;;;15.70;99.90;;;;;;5116523;28;20396;-72
2021/07/02 03:28:13;;;;;;;24.58;12.93;;;15.70;99.90;;;;;;5116207;28;20047;-72
2021/07/02 03:30:38;;;;;;;25.75;12.65;;;15.70;99.90;;;;;;5115643;28;20036;-72
2021/07/02 03:33:04;;;;;;;21.65;12.13;;;15.70;99.90;;;;;;5116013;28;20042;-72
2021/07/02 03:35:30;;;;;;;19.25;12.10;;;15.70;99.90;;;;;;5116349;28;20043;-72
2021/07/02 03:37:56;;;;;;;21.23;11.57;;;15.70;99.90;;;;;;5115861;28;20395;-72
2021/07/02 03:40:22;;;;;;;23.30;12.60;;;15.70;99.90;;;;;;5115546;28;20036;-72
2021/07/02 03:42:47;;;;;;;21.40;11.93;;;15.60;99.90;;;;;;5116000;28;20421;-72
2021/07/02 03:45:13;;;;;;;22.23;12.70;;;15.60;99.90;;;;;;5116240;28;20161;-72
2021/07/02 03:47:39;;;;;;;31.55;13.43;;;15.60;99.90;;;;;;5114958;28;20156;-72
2021/07/02 03:50:05;;;;;;;27.45;11.77;;;15.60;99.90;;;;;;5115699;28;20047;-72
2021/07/02 03:52:31;;;;;;;22.48;12.63;;;15.60;99.90;;;;;;5115537;28;20089;-72
2021/07/02 03:54:57;;;;;;;23.38;12.15;;;15.60;99.90;;;;;;5116146;28;20047;-72
2021/07/02 03:57:22;;;;;;;25.02;12.80;;;15.60;99.90;;;;;;5115724;28;20040;-72
2021/07/02 03:59:51;;;;;;;19.95;11.93;;;15.60;99.90;;;;;;5115137;28;20483;-72
2021/07/02 04:02:18;;;;;;;23.00;11.85;;;15.60;99.90;;;;;;5115774;28;20032;-72
2021/07/02 04:04:44;;;;;;;23.50;12.40;;;15.60;99.90;;;;;;5115298;28;20039;-72
2021/07/02 04:07:12;;;;;;;21.20;12.38;;;15.50;99.90;;;;;;5115785;28;20032;-72
2021/07/02 04:09:39;;;;;;;21.80;11.82;;;15.50;99.90;;;;;;5114919;28;20464;-72
2021/07/02 04:12:06;;;;;;;22.80;13.13;;;15.50;99.90;;;;;;5115052;28;20047;-72
2021/07/02 04:14:32;;;;;;;23.27;12.18;;;15.60;99.90;;;;;;5115226;28;20032;-72
2021/07/02 04:16:58;;;;;;;22.98;12.27;;;15.50;99.90;;;;;;5115436;28;20040;-72
2021/07/02 04:19:25;;;;;;;23.88;12.10;;;15.60;99.90;;;;;;5115020;28;20031;-72
2021/07/02 04:21:52;;;;;;;24.90;13.13;;;15.60;99.90;;;;;;5115237;28;20135;-71
2021/07/02 04:24:18;;;;;;;26.77;14.02;;;15.60;99.90;;;;;;5115014;27;20032;-72
2021/07/02 04:26:45;;;;;;;24.38;13.30;;;15.60;99.90;;;;;;5114838;28;20044;-72
2021/07/02 04:29:11;;;;;;;25.45;13.27;;;15.60;99.90;;;;;;5114571;28;20031;-72
2021/07/02 04:31:37;;;;;;;23.63;12.90;;;15.70;99.90;;;;;;5115442;28;20039;-72
2021/07/02 04:34:02;;;;;;;23.70;13.20;;;15.70;99.90;;;;;;5115416;28;20441;-72
2021/07/02 04:36:31;;;;;;;27.23;14.98;;;15.70;99.90;;;;;;5114819;28;20035;-72
2021/07/02 04:38:57;;;;;;;24.17;14.18;;;15.70;99.90;;;;;;5114345;28;20134;-72
2021/07/02 04:41:24;;;;;;;22.88;13.85;;;15.70;99.90;;;;;;5114810;28;20032;-72
2021/07/02 04:43:50;;;;;;;24.33;13.52;;;15.70;99.90;;;;;;5115240;28;20043;-71
2021/07/02 04:46:17;;;;;;;21.67;12.90;;;15.70;99.90;;;;;;5115067;28;20468;-71
2021/07/02 04:48:43;;;;;;;27.88;12.88;;;15.70;99.90;;;;;;5114770;28;20403;-71
2021/07/02 04:51:09;;;;;;;22.58;12.40;;;15.70;99.90;;;;;;5115017;28;20448;-71
2021/07/02 04:53:38;;;;;;;22.88;12.63;;;15.80;99.90;;;;;;5114509;28;20156;-71
2021/07/02 04:56:04;;;;;;;27.58;13.30;;;15.80;99.90;;;;;;5114205;28;20069;-71
2021/07/02 04:58:30;;;;;;;26.98;14.20;;;15.90;99.90;;;;;;5114031;28;20089;-71
2021/07/02 05:00:56;;;;;;;23.80;14.18;;;15.90;99.90;;;;;;5114219;28;20490;-71
2021/07/02 05:03:21;;;;;;;26.85;15.05;;;15.90;99.90;;;;;;5114279;28;20032;-71
2021/07/02 05:05:47;;;;;;;28.60;13.60;;;15.90;99.90;;;;;;5114124;28;20047;-71
2021/07/02 05:08:13;;;;;;;20.38;13.65;;;15.90;99.90;;;;;;5114365;28;20043;-72
2021/07/02 05:10:38;;;;;;;26.90;13.23;;;16.00;99.90;;;;;;5113802;28;20068;-71
2021/07/02 05:13:05;;;;;;;25.15;13.20;;;16.00;99.90;;;;;;5114613;28;20043;-71
2021/07/02 05:15:31;;;;;;;25.85;13.43;;;16.00;99.90;;;;;;5114525;28;20071;-71
2021/07/02 05:17:56;;;;;;;27.35;13.48;;;16.00;99.90;;;;;;5114140;28;20044;-71
2021/07/02 05:20:22;;;;;;;26.17;15.23;;;16.00;99.90;;;;;;5113753;28;20031;-71
2021/07/02 05:22:48;;;;;;;33.22;16.45;;;16.00;99.90;;;;;;5113911;28;20043;-71
2021/07/02 05:25:14;;;;;;;31.65;16.55;;;16.00;99.90;;;;;;5114216;28;20384;-71
2021/07/02 05:27:40;;;;;;;29.48;14.65;;;16.00;99.90;;;;;;5114305;28;20081;-71
2021/07/02 05:30:07;;;;;;;33.03;17.58;;;16.10;99.90;;;;;;5113479;28;20084;-71
2021/07/02 05:32:33;;;;;;;30.80;16.30;;;16.10;99.90;;;;;;5114470;28;20114;-71
2021/07/02 05:34:59;;;;;;;37.40;17.42;;;16.10;99.90;;;;;;5113912;28;20127;-69
2021/07/02 05:37:24;;;;;;;36.65;17.90;;;16.10;99.90;;;;;;5112960;28;20046;-69
2021/07/02 05:39:50;;;;;;;38.30;18.65;;;16.10;99.90;;;;;;5111298;28;20031;-69
2021/07/02 05:42:21;;;;;;;35.15;19.25;;;16.00;99.90;;;;;;5112997;28;20438;-69
2021/07/02 05:44:47;;;;;;;38.97;19.67;;;16.00;99.90;;;;;;5112016;28;20067;-70
2021/07/02 05:47:14;;;;;;;33.88;20.00;;;16.10;99.90;;;;;;5113156;28;20036;-69
2021/07/02 05:49:40;;;;;;;36.55;18.88;;;16.10;99.90;;;;;;5112839;28;20137;-69
2021/07/02 05:52:09;;;;;;;39.42;18.95;;;16.10;99.90;;;;;;5111847;28;20035;-69
2021/07/02 05:54:34;;;;;;;37.33;19.88;;;16.10;99.90;;;;;;5113876;28;20031;-69
2021/07/02 05:57:00;;;;;;;38.08;19.52;;;16.10;99.90;;;;;;5113654;28;20084;-69
2021/07/02 05:59:26;;;;;;;34.88;20.52;;;16.10;99.90;;;;;;5113563;28;20039;-69
2021/07/02 06:01:51;;;;;;;34.13;18.40;;;16.10;99.90;;;;;;5113535;28;20122;-69
2021/07/02 06:04:17;;;;;;;35.10;16.90;;;16.20;99.90;;;;;;5113559;28;20043;-69
2021/07/02 06:06:47;;;;;;;33.83;17.40;;;16.20;99.90;;;;;;5113864;28;20479;-69
2021/07/02 06:09:13;;;;;;;35.25;18.40;;;16.20;99.90;;;;;;5113185;28;20035;-69
2021/07/02 06:11:38;;;;;;;25.05;15.50;;;16.20;99.90;;;;;;5113973;28;20453;-69
2021/07/02 06:14:04;;;;;;;31.10;16.50;;;16.20;99.90;;;;;;5113752;28;20036;-69
2021/07/02 06:16:30;;;;;;;27.63;15.18;;;16.20;99.90;;;;;;5113690;28;20043;-69
2021/07/02 06:18:55;;;;;;;29.40;16.85;;;16.20;99.90;;;;;;5112998;28;20403;-69
2021/07/02 06:21:21;;;;;;;27.13;15.48;;;16.30;99.90;;;;;;5113594;28;20081;-69
2021/07/02 06:23:47;;;;;;;28.92;15.35;;;16.30;99.90;;;;;;5113796;28;20032;-69
2021/07/02 06:26:13;;;;;;;24.92;14.07;;;16.30;99.90;;;;;;5113622;28;20047;-69
2021/07/02 06:28:39;;;;;;;26.70;15.23;;;16.40;99.90;;;;;;5112310;28;20036;-69
2021/07/02 06:31:05;;;;;;;30.80;15.23;;;16.40;99.90;;;;;;5112700;28;20471;-69
2021/07/02 06:33:31;;;;;;;24.02;14.55;;;16.30;99.90;;;;;;5113345;28;20470;-69
2021/07/02 06:35:57;;;;;;;24.77;15.00;;;16.30;99.90;;;;;;5113192;28;20063;-69
2021/07/02 06:38:23;;;;;;;27.40;14.88;;;16.40;99.90;;;;;;5113411;28;20071;-69
2021/07/02 06:40:48;;;;;;;22.92;13.63;;;16.40;99.90;;;;;;5113001;28;20050;-69
2021/07/02 06:43:14;;;;;;;23.67;14.77;;;16.40;99.90;;;;;;5113510;28;20501;-70
2021/07/02 06:45:42;;;;;;;26.20;14.85;;;16.30;99.90;;;;;;5113037;28;20130;-70
2021/07/02 06:48:08;;;;;;;28.45;14.43;;;16.40;99.90;;;;;;5113060;28;20060;-70
2021/07/02 06:50:36;;;;;;;22.27;13.07;;;16.30;99.90;;;;;;5114865;28;20048;-69
2021/07/02 06:53:04;;;;;;;24.90;14.43;;;16.30;99.90;;;;;;5117100;28;20525;-70
2021/07/02 06:55:53;;;;;;;24.33;14.95;;;16.30;99.90;;;;;;5116494;28;20086;-69
2021/07/02 06:58:20;;;;;;;25.70;15.25;;;16.30;99.90;;;;;;5116916;28;20066;-70
2021/07/02 07:00:46;;;;;;;26.38;14.30;;;16.30;99.90;;;;;;5116238;28;20486;-70
2021/07/02 07:03:13;;;;;;;25.35;14.27;;;16.30;99.90;;;;;;5116957;28;20176;-70
2021/07/02 07:05:40;;;;;;;23.83;13.40;;;16.30;99.90;;;;;;5116724;28;20549;-69
2021/07/02 07:08:08;;;;;;;23.02;13.52;;;16.30;99.90;;;;;;5117045;28;20035;-69
2021/07/02 07:10:34;;;;;;;25.02;14.30;;;16.30;99.90;;;;;;5116204;28;20061;-69
2021/07/02 07:13:01;;;;;;;23.65;14.13;;;16.30;99.90;;;;;;5116311;28;20032;-69
2021/07/02 07:15:27;;;;;;;20.77;13.73;;;16.30;99.90;;;;;;5116815;28;20452;-69
2021/07/02 07:17:54;;;;;;;27.65;15.35;;;16.30;99.90;;;;;;5115228;28;20044;-69
2021/07/02 07:20:20;;;;;;;24.65;14.73;;;16.30;99.90;;;;;;5115819;28;20043;-69
2021/07/02 07:22:50;;;;;;;25.02;15.25;;;16.30;99.90;;;;;;5117026;28;20039;-69
2021/07/02 07:25:20;;;;;;;33.40;14.73;;;16.30;99.90;;;;;;5116269;28;20043;-69
2021/07/02 07:27:45;;;;;;;26.27;14.93;;;16.40;99.90;;;;;;5116165;28;20031;-70
2021/07/02 07:30:13;;;;;;;25.20;14.00;;;16.40;99.90;;;;;;5116106;28;20036;-69
2021/07/02 07:32:39;;;;;;;24.33;14.02;;;16.40;99.90;;;;;;5114947;28;20105;-69
2021/07/02 07:35:17;;;;;;;25.40;14.75;;;16.40;99.90;;;;;;5116375;28;20476;-69
2021/07/02 07:37:44;;;;;;;27.90;14.55;;;16.50;99.90;;;;;;5115985;28;20433;-69
2021/07/02 07:40:10;;;;;;;31.58;15.30;;;16.60;99.90;;;;;;5115669;28;20093;-69
2021/07/02 07:42:36;;;;;;;27.17;14.20;;;16.60;99.90;;;;;;5115976;28;20040;-69
2021/07/02 07:45:02;;;;;;;30.13;14.95;;;16.60;99.90;;;;;;5115993;28;20453;-69
2021/07/02 07:47:28;;;;;;;36.50;15.30;;;16.60;99.90;;;;;;5116151;28;20043;-69
2021/07/02 07:49:54;;;;;;;25.35;15.13;;;16.70;99.90;;;;;;5115482;28;20050;-69
2021/07/02 07:52:35;;;;;;;30.50;15.35;;;16.70;99.90;;;;;;5116196;28;20066;-69
2021/07/02 07:55:03;;;;;;;27.08;15.32;;;16.70;99.90;;;;;;5115853;28;20051;-70
2021/07/02 07:57:28;;;;;;;27.77;15.13;;;16.80;99.90;;;;;;5115939;28;20130;-70
2021/07/02 07:59:55;;;;;;;29.80;16.00;;;16.80;99.90;;;;;;5115121;28;20471;-70
2021/07/02 08:02:21;;;;;;;26.10;16.63;;;16.80;99.90;;;;;;5114763;28;20046;-70
2021/07/02 08:04:47;;;;;;;32.97;16.23;;;16.80;99.90;;;;;;5115291;27;20046;-70
2021/07/02 08:07:12;;;;;;;30.08;16.02;;;16.80;99.90;;;;;;5115562;28;20043;-69
2021/07/02 08:09:38;;;;;;;28.83;17.08;;;16.80;99.90;;;;;;5115221;28;20039;-70
2021/07/02 08:12:04;;;;;;;29.88;15.15;;;16.80;99.90;;;;;;5115446;28;20050;-69
2021/07/02 08:14:31;;;;;;;32.63;16.45;;;16.80;99.90;;;;;;5114569;28;20055;-69
2021/07/02 08:16:57;;;;;;;32.42;14.85;;;16.70;99.90;;;;;;5115094;28;20046;-69
2021/07/02 08:19:22;;;;;;;25.45;14.57;;;16.80;99.90;;;;;;5114948;28;20394;-69
2021/07/02 08:21:59;;;;;;;23.58;14.68;;;16.80;99.90;;;;;;5116545;28;20072;-69
2021/07/02 08:24:24;;;;;;;25.20;14.07;;;16.70;99.90;;;;;;5114989;28;20563;-69
2021/07/02 08:26:56;;;;;;;22.42;13.15;;;16.70;99.90;;;;;;5114164;28;20443;-69
2021/07/02 08:29:28;;;;;;;19.73;12.55;;;16.70;99.90;;;;;;5114754;28;20479;-69
2021/07/02 08:31:55;;;;;;;25.52;14.68;;;16.70;99.90;;;;;;5114801;28;20043;-69
2021/07/02 08:34:25;;;;;;;19.77;13.18;;;16.80;99.90;;;;;;5114934;28;20463;-69
2021/07/02 08:36:51;;;;;;;24.20;14.63;;;16.80;99.90;;;;;;5114799;28;20047;-69
2021/07/02 08:39:17;;;;;;;22.50;13.85;;;16.90;99.90;;;;;;5114517;28;20042;-69
2021/07/02 08:41:43;;;;;;;23.67;13.75;;;16.90;99.90;;;;;;5114706;28;20400;-69
2021/07/02 08:44:08;;;;;;;29.58;15.50;;;16.90;99.90;;;;;;5114802;28;20407;-70
2021/07/02 08:46:35;;;;;;;25.65;15.68;;;17.00;99.90;;;;;;5114989;28;20050;-69
2021/07/02 08:49:01;;;;;;;27.92;16.85;;;17.00;99.90;;;;;;5114483;28;20036;-69
2021/07/02 08:51:27;;;;;;;28.20;16.25;;;17.00;99.90;;;;;;5114488;28;20039;-70
2021/07/02 08:53:56;;;;;;;27.27;17.08;;;17.00;99.90;;;;;;5114485;27;20050;-68
2021/07/02 08:56:22;;;;;;;27.40;15.70;;;17.00;99.90;;;;;;5114043;27;20496;-69
2021/07/02 08:58:48;;;;;;;31.35;17.70;;;17.00;99.90;;;;;;5114168;27;20051;-69
2021/07/02 09:01:42;;;;;;;32.33;16.95;;;17.00;99.90;;;;;;5114428;28;20035;-69
2021/07/02 09:04:25;;;;;;;30.45;16.38;;;17.00;99.90;;;;;;5113345;28;20095;-69
2021/07/02 09:07:05;;;;;;;41.40;17.73;;;17.00;99.90;;;;;;5114627;28;20210;-69
2021/07/02 09:09:57;;;;;;;26.38;15.60;;;16.90;99.90;;;;;;5114339;28;20039;-69
2021/07/02 09:12:24;;;;;;;30.90;14.52;;;16.90;99.90;;;;;;5113136;28;20078;-69
2021/07/02 09:14:57;;;;;;;26.63;16.60;;;16.90;99.90;;;;;;5114176;28;20411;-69
2021/07/02 09:17:24;;;;;;;32.67;16.83;;;16.80;99.90;;;;;;5114099;28;20067;-69
2021/07/02 09:20:10;;;;;;;34.08;19.73;;;16.80;99.90;;;;;;5113779;28;20035;-69
2021/07/02 09:22:43;;;;;;;33.58;17.77;;;16.80;99.90;;;;;;5114242;28;20114;-69
2021/07/02 09:25:10;;;;;;;35.65;19.25;;;16.80;99.90;;;;;;5113972;28;20040;-69
2021/07/02 09:27:38;;;;;;;33.17;18.25;;;16.80;99.90;;;;;;5114462;28;20371;-69
2021/07/02 09:30:11;;;;;;;36.22;18.65;;;16.80;99.90;;;;;;5113726;28;20032;-69
2021/07/02 09:32:39;;;;;;;31.73;17.73;;;16.90;99.90;;;;;;5114137;28;20122;-69
2021/07/02 09:35:06;;;;;;;32.50;18.23;;;17.10;99.90;;;;;;5114011;28;20053;-69
2021/07/02 09:37:44;;;;;;;31.67;16.48;;;17.10;99.90;;;;;;5114163;28;20452;-69
2021/07/02 09:40:11;;;;;;;33.80;17.15;;;17.20;99.90;;;;;;5113770;28;20550;-69
2021/07/02 09:42:37;;;;;;;28.40;15.50;;;17.20;99.90;;;;;;5113888;28;20104;-69
2021/07/02 09:45:04;;;;;;;28.65;17.83;;;17.20;99.90;;;;;;5113728;28;20496;-69
2021/07/02 09:47:30;;;;;;;34.75;16.70;;;17.30;99.90;;;;;;5113937;28;20431;-69
2021/07/02 09:50:23;;;;;;;40.55;15.50;;;17.30;99.90;;;;;;5113582;28;20499;-69
2021/07/02 09:52:56;;;;;;;27.92;15.13;;;17.40;99.90;;;;;;5113938;28;20032;-70
2021/07/02 09:55:24;;;;;;;25.50;15.98;;;17.50;99.90;;;;;;5113649;28;20142;-70
2021/07/02 09:58:01;;;;;;;25.83;16.23;;;17.60;99.90;;;;;;5112565;28;20038;-70
2021/07/02 10:00:26;;;;;;;28.10;16.13;;;17.70;99.90;;;;;;5113375;28;20552;-70
2021/07/02 10:02:57;;;;;;;23.08;14.90;;;17.80;99.90;;;;;;5113697;28;20107;-69
2021/07/02 10:05:24;;;;;;;24.17;13.85;;;17.80;99.90;;;;;;5113581;28;20069;-70
2021/07/02 10:07:58;;;;;;;23.50;13.65;;;17.90;99.90;;;;;;5113607;28;20043;-70
2021/07/02 10:10:25;;;;;;;21.52;14.00;;;17.90;99.90;;;;;;5113279;28;20035;-70
2021/07/02 10:12:53;;;;;;;25.60;13.98;;;17.90;99.90;;;;;;5113666;28;20123;-70
2021/07/02 10:15:21;;;;;;;19.17;13.00;;;17.90;99.90;;;;;;5113728;28;20048;-70
2021/07/02 10:17:46;;;;;;;24.85;14.40;;;17.90;99.90;;;;;;5113579;28;20036;-70
2021/07/02 10:20:15;;;;;;;25.27;13.50;;;18.00;99.90;;;;;;5113134;28;20036;-70
2021/07/02 10:22:42;;;;;;;23.45;14.57;;;18.10;99.90;;;;;;5113372;28;20032;-70
2021/07/02 10:25:10;;;;;;;22.63;13.00;;;18.20;99.90;;;;;;5116376;28;20044;-70
2021/07/02 10:27:38;;;;;;;23.58;13.50;;;18.30;99.90;;;;;;5117292;28;20047;-70
2021/07/02 10:30:04;;;;;;;18.70;11.90;;;18.40;99.90;;;;;;5116739;28;20032;-70
2021/07/02 10:32:33;;;;;;;17.77;11.73;;;18.60;99.90;;;;;;5117693;28;20039;-70
2021/07/02 10:34:59;;;;;;;18.15;11.20;;;18.70;99.90;;;;;;5117768;28;20042;-69
2021/07/02 10:37:26;;;;;;;18.38;11.57;;;19.00;99.90;;;;;;5117633;27;20047;-70
2021/07/02 10:39:53;;;;;;;18.80;11.68;;;19.10;99.90;;;;;;5116985;28;20063;-70
2021/07/02 10:42:19;;;;;;;19.63;12.35;;;19.10;99.90;;;;;;5117127;28;20422;-70
2021/07/02 10:44:54;;;;;;;17.55;11.68;;;19.10;99.90;;;;;;5117653;28;20035;-70
2021/07/02 10:47:21;;;;;;;20.85;11.60;;;19.20;99.90;;;;;;5117535;28;20031;-71
2021/07/02 10:49:48;;;;;;;18.08;10.68;;;19.30;99.90;;;;;;5116639;28;20087;-71
2021/07/02 10:52:34;;;;;;;19.00;11.48;;;19.40;99.90;;;;;;5116668;28;20372;-71
2021/07/02 10:55:05;;;;;;;16.45;11.25;;;19.60;99.90;;;;;;5116906;27;20099;-71
2021/07/02 10:57:30;;;;;;;19.35;12.20;;;19.70;99.90;;;;;;5117471;27;20036;-70
2021/07/02 11:00:03;;;;;;;15.30;9.95;;;19.70;99.90;;;;;;5116238;28;20047;-71
2021/07/02 11:02:29;;;;;;;15.52;9.77;;;19.80;99.90;;;;;;5116914;28;20109;-69
2021/07/02 11:04:59;;;;;;;12.52;8.70;;;19.90;99.90;;;;;;5116171;28;20504;-70
2021/07/02 11:07:25;;;;;;;16.20;9.85;;;20.30;99.90;;;;;;5115442;28;20406;-69
2021/07/02 11:10:07;;;;;;;15.35;9.32;;;20.70;99.90;;;;;;5115015;28;20040;-70
2021/07/02 11:12:57;;;;;;;12.77;9.13;;;20.80;99.90;;;;;;5116335;28;20036;-70
2021/07/02 11:15:24;;;;;;;15.85;10.40;;;20.90;99.90;;;;;;5115394;28;20048;-71
2021/07/02 11:18:08;;;;;;;15.48;10.40;;;21.00;99.90;;;;;;5116620;28;20471;-70
2021/07/02 11:20:33;;;;;;;16.33;9.95;;;20.80;99.90;;;;;;5115869;28;20040;-70
2021/07/02 11:22:59;;;;;;;15.68;10.30;;;20.90;99.90;;;;;;5116267;28;20039;-70
2021/07/02 11:28:21;;;;;;;12.98;8.63;;;20.90;99.90;;;;;;5116750;28;20036;-69
2021/07/02 11:30:48;;;;;;;12.60;9.25;;;20.90;99.90;;;;;;5116014;28;20035;-69
2021/07/02 11:33:22;;;;;;;12.45;7.93;;;20.80;99.90;;;;;;5116309;28;20093;-70
2021/07/02 11:36:05;;;;;;;11.55;8.43;;;20.80;99.90;;;;;;5115095;28;20093;-70
2021/07/02 11:38:31;;;;;;;;;;;20.70;99.90;;;;;;5116524;28;20039;-70
2021/07/02 11:41:04;;;;;;;13.27;8.50;;;20.50;99.90;;;;;;5116458;28;19916;-70
2021/07/02 11:43:38;;;;;;;10.70;7.05;;;20.40;99.90;;;;;;5116539;28;20040;-70
2021/07/02 11:46:07;;;;;;;9.65;7.45;;;20.30;99.90;;;;;;5116227;27;20040;-70
2021/07/02 11:48:38;;;;;;;7.68;5.20;;;20.20;99.90;;;;;;5115552;28;20111;-68
2021/07/02 11:51:08;;;;;;;8.25;4.55;;;20.20;99.90;;;;;;5115594;28;20042;-69
2021/07/02 11:53:36;;;;;;;6.07;4.38;;;20.10;99.90;;;;;;5115317;28;20484;-69
2021/07/02 11:56:05;;;;;;;8.85;6.63;;;20.00;99.90;;;;;;5114437;28;20077;-69
2021/07/02 11:58:47;;;;;;;9.18;6.65;;;19.90;99.90;;;;;;5115014;28;20078;-70
2021/07/02 12:01:22;;;;;;;8.68;6.05;;;20.00;99.90;;;;;;5115422;28;20035;-70
2021/07/02 12:03:53;;;;;;;9.05;6.35;;;20.10;99.90;;;;;;5115370;28;20048;-70
2021/07/02 12:06:25;;;;;;;10.55;6.35;;;20.30;99.90;;;;;;5115288;28;20043;-70
2021/07/02 12:08:59;;;;;;;7.82;6.25;;;20.40;99.90;;;;;;5115620;28;20492;-69
2021/07/02 12:11:37;;;;;;;9.25;6.63;;;20.50;99.90;;;;;;5114788;28;20039;-70
2021/07/02 12:14:14;;;;;;;9.70;7.07;;;20.70;99.90;;;;;;5114141;28;20031;-69
2021/07/02 12:16:44;;;;;;;11.13;7.22;;;20.70;99.90;;;;;;5114200;28;20040;-69
2021/07/02 12:19:16;;;;;;;10.50;7.45;;;20.80;99.90;;;;;;5115317;28;20027;-69
2021/07/02 12:21:58;;;;;;;12.00;7.17;;;20.80;99.90;;;;;;5115172;28;20032;-69
2021/07/02 12:24:36;;;;;;;11.57;7.60;;;20.80;99.90;;;;;;5115354;28;20038;-69
2021/07/02 12:27:05;;;;;;;13.15;8.23;;;20.80;99.90;;;;;;5115465;28;20077;-69
2021/07/02 12:29:32;;;;;;;13.02;8.45;;;20.80;99.90;;;;;;5114514;28;20096;-70
2021/07/02 12:32:04;;;;;;;14.27;9.02;;;20.90;99.90;;;;;;5115097;28;20444;-70
2021/07/02 12:34:37;;;;;;;14.23;8.23;;;20.90;99.90;;;;;;5115185;28;20107;-69